sensor_id;sensor_type;location;lat;lon;timestamp;P1;durP1;ratioP1;P2;durP2;ratioP2
32876;SDS011;19226;51.600;8.034;2023-05-10T00:00:17;13.57;;;9.10;;
32876;SDS011;19226;51.600;8.034;2023-05-10T00:03:02;11.02;;;8.20;;
32876;SDS011;19226;51.600;8.034;2023-05-10T00:05:48;8.48;;;6.50;;
32876;SDS011;19226;51.600;8.034;2023-05-10T00:08:33;9.30;;;6.35;;
32876;SDS011;19226;51.600;8.034;2023-05-10T00:11:17;6.38;;;4.00;;
32876;SDS011;19226;51.600;8.034;2023-05-10T00:14:02;6.60;;;4.18;;
32876;SDS011;19226;51.600;8.034;2023-05-10T00:16:46;12.52;;;3.70;;
32876;SDS011;19226;51.600;8.034;2023-05-10T00:19:31;5.38;;;3.85;;
32876;SDS011;19226;51.600;8.034;2023-05-10T00:22:15;8.00;;;3.70;;
32876;SDS011;19226;51.600;8.034;2023-05-10T00:25:00;11.02;;;5.55;;
32876;SDS011;19226;51.600;8.034;2023-05-10T00:27:44;9.18;;;5.50;;
32876;SDS011;19226;51.600;8.034;2023-05-10T00:30:29;7.57;;;5.53;;
32876;SDS011;19226;51.600;8.034;2023-05-10T00:33:13;12.32;;;6.47;;
32876;SDS011;19226;51.600;8.034;2023-05-10T00:35:58;9.43;;;6.13;;
32876;SDS011;19226;51.600;8.034;2023-05-10T00:38:43;11.77;;;6.75;;
32876;SDS011;19226;51.600;8.034;2023-05-10T00:41:27;11.52;;;6.90;;
32876;SDS011;19226;51.600;8.034;2023-05-10T00:44:12;9.82;;;6.80;;
32876;SDS011;19226;51.600;8.034;2023-05-10T00:46:57;7.80;;;5.60;;
32876;SDS011;19226;51.600;8.034;2023-05-10T00:49:42;9.00;;;5.45;;
32876;SDS011;19226;51.600;8.034;2023-05-10T00:52:28;9.48;;;4.78;;
32876;SDS011;19226;51.600;8.034;2023-05-10T00:55:15;6.38;;;4.40;;
32876;SDS011;19226;51.600;8.034;2023-05-10T00:58:00;4.75;;;3.60;;
32876;SDS011;19226;51.600;8.034;2023-05-10T01:00:45;4.05;;;2.83;;
32876;SDS011;19226;51.600;8.034;2023-05-10T01:03:31;4.07;;;3.40;;
32876;SDS011;19226;51.600;8.034;2023-05-10T01:06:16;4.32;;;3.28;;
32876;SDS011;19226;51.600;8.034;2023-05-10T01:09:01;5.35;;;3.47;;
32876;SDS011;19226;51.600;8.034;2023-05-10T01:11:45;3.50;;;2.90;;
32876;SDS011;19226;51.600;8.034;2023-05-10T01:14:31;6.38;;;3.42;;
32876;SDS011;19226;51.600;8.034;2023-05-10T01:17:16;4.50;;;3.17;;
32876;SDS011;19226;51.600;8.034;2023-05-10T01:20:01;6.28;;;3.35;;
32876;SDS011;19226;51.600;8.034;2023-05-10T01:29:10;3.70;;;2.88;;
32876;SDS011;19226;51.600;8.034;2023-05-10T01:35:14;2.70;;;2.50;;
32876;SDS011;19226;51.600;8.034;2023-05-10T01:44:31;3.00;;;2.70;;
32876;SDS011;19226;51.600;8.034;2023-05-10T01:50:24;3.72;;;2.78;;
32876;SDS011;19226;51.600;8.034;2023-05-10T01:53:13;2.80;;;2.38;;
32876;SDS011;19226;51.600;8.034;2023-05-10T01:56:02;4.10;;;2.92;;
32876;SDS011;19226;51.600;8.034;2023-05-10T01:58:49;3.25;;;2.70;;
32876;SDS011;19226;51.600;8.034;2023-05-10T02:01:35;4.90;;;2.92;;
32876;SDS011;19226;51.600;8.034;2023-05-10T02:04:22;3.42;;;3.13;;
32876;SDS011;19226;51.600;8.034;2023-05-10T02:07:07;4.63;;;3.67;;
32876;SDS011;19226;51.600;8.034;2023-05-10T02:09:53;4.57;;;4.05;;
32876;SDS011;19226;51.600;8.034;2023-05-10T02:12:41;4.82;;;4.38;;
32876;SDS011;19226;51.600;8.034;2023-05-10T02:15:28;5.32;;;4.20;;
32876;SDS011;19226;51.600;8.034;2023-05-10T02:18:14;4.90;;;4.40;;
32876;SDS011;19226;51.600;8.034;2023-05-10T02:21:00;5.65;;;4.05;;
32876;SDS011;19226;51.600;8.034;2023-05-10T02:23:46;5.70;;;4.80;;
32876;SDS011;19226;51.600;8.034;2023-05-10T02:26:34;5.95;;;5.05;;
32876;SDS011;19226;51.600;8.034;2023-05-10T02:29:19;10.45;;;5.25;;
32876;SDS011;19226;51.600;8.034;2023-05-10T02:32:06;6.75;;;5.65;;
32876;SDS011;19226;51.600;8.034;2023-05-10T02:34:53;6.90;;;5.72;;
32876;SDS011;19226;51.600;8.034;2023-05-10T02:37:39;7.15;;;6.07;;
32876;SDS011;19226;51.600;8.034;2023-05-10T02:40:24;8.50;;;6.35;;
32876;SDS011;19226;51.600;8.034;2023-05-10T02:43:12;9.20;;;6.40;;
32876;SDS011;19226;51.600;8.034;2023-05-10T02:45:58;9.02;;;6.60;;
32876;SDS011;19226;51.600;8.034;2023-05-10T02:48:43;12.55;;;8.02;;
32876;SDS011;19226;51.600;8.034;2023-05-10T02:51:29;11.75;;;7.80;;
32876;SDS011;19226;51.600;8.034;2023-05-10T02:54:18;12.27;;;8.35;;
32876;SDS011;19226;51.600;8.034;2023-05-10T02:57:05;13.20;;;8.73;;
32876;SDS011;19226;51.600;8.034;2023-05-10T02:59:51;12.38;;;8.57;;
32876;SDS011;19226;51.600;8.034;2023-05-10T03:02:35;19.13;;;8.60;;
32876;SDS011;19226;51.600;8.034;2023-05-10T03:05:20;12.75;;;8.38;;
32876;SDS011;19226;51.600;8.034;2023-05-10T03:08:05;14.00;;;9.77;;
32876;SDS011;19226;51.600;8.034;2023-05-10T03:11:12;15.13;;;9.60;;
32876;SDS011;19226;51.600;8.034;2023-05-10T03:17:41;15.38;;;8.32;;
32876;SDS011;19226;51.600;8.034;2023-05-10T03:20:38;10.52;;;7.30;;
32876;SDS011;19226;51.600;8.034;2023-05-10T03:23:30;7.78;;;5.50;;
32876;SDS011;19226;51.600;8.034;2023-05-10T03:26:29;6.30;;;4.82;;
32876;SDS011;19226;51.600;8.034;2023-05-10T03:29:23;3.58;;;3.05;;
32876;SDS011;19226;51.600;8.034;2023-05-10T03:32:09;3.88;;;3.40;;
32876;SDS011;19226;51.600;8.034;2023-05-10T03:34:54;4.10;;;2.30;;
32876;SDS011;19226;51.600;8.034;2023-05-10T03:37:39;3.03;;;2.58;;
32876;SDS011;19226;51.600;8.034;2023-05-10T03:40:24;2.80;;;2.03;;
32876;SDS011;19226;51.600;8.034;2023-05-10T03:43:09;4.20;;;1.88;;
32876;SDS011;19226;51.600;8.034;2023-05-10T03:45:54;2.63;;;2.00;;
32876;SDS011;19226;51.600;8.034;2023-05-10T03:48:38;2.10;;;1.80;;
32876;SDS011;19226;51.600;8.034;2023-05-10T03:51:23;2.25;;;2.05;;
32876;SDS011;19226;51.600;8.034;2023-05-10T03:54:11;3.17;;;1.88;;
32876;SDS011;19226;51.600;8.034;2023-05-10T03:56:56;2.55;;;2.03;;
32876;SDS011;19226;51.600;8.034;2023-05-10T03:59:41;5.90;;;2.00;;
32876;SDS011;19226;51.600;8.034;2023-05-10T04:02:25;5.63;;;1.40;;
32876;SDS011;19226;51.600;8.034;2023-05-10T04:05:10;1.23;;;1.13;;
32876;SDS011;19226;51.600;8.034;2023-05-10T04:07:55;1.65;;;1.52;;
32876;SDS011;19226;51.600;8.034;2023-05-10T04:10:39;2.38;;;1.35;;
32876;SDS011;19226;51.600;8.034;2023-05-10T04:13:24;1.77;;;1.60;;
32876;SDS011;19226;51.600;8.034;2023-05-10T04:16:08;2.42;;;1.20;;
32876;SDS011;19226;51.600;8.034;2023-05-10T04:18:53;1.73;;;1.20;;
32876;SDS011;19226;51.600;8.034;2023-05-10T04:21:37;4.20;;;1.42;;
32876;SDS011;19226;51.600;8.034;2023-05-10T04:24:22;7.20;;;1.48;;
32876;SDS011;19226;51.600;8.034;2023-05-10T04:27:06;1.50;;;1.08;;
32876;SDS011;19226;51.600;8.034;2023-05-10T04:29:51;0.98;;;0.98;;
32876;SDS011;19226;51.600;8.034;2023-05-10T04:32:35;1.50;;;1.17;;
32876;SDS011;19226;51.600;8.034;2023-05-10T04:35:20;4.97;;;1.33;;
32876;SDS011;19226;51.600;8.034;2023-05-10T04:38:05;1.38;;;1.10;;
32876;SDS011;19226;51.600;8.034;2023-05-10T04:40:49;2.95;;;1.25;;
32876;SDS011;19226;51.600;8.034;2023-05-10T04:43:34;2.08;;;1.30;;
32876;SDS011;19226;51.600;8.034;2023-05-10T04:46:19;2.60;;;1.40;;
32876;SDS011;19226;51.600;8.034;2023-05-10T04:49:03;1.40;;;1.30;;
32876;SDS011;19226;51.600;8.034;2023-05-10T04:51:48;7.28;;;1.60;;
32876;SDS011;19226;51.600;8.034;2023-05-10T04:54:32;6.20;;;1.58;;
32876;SDS011;19226;51.600;8.034;2023-05-10T04:57:17;1.92;;;1.50;;
32876;SDS011;19226;51.600;8.034;2023-05-10T05:00:01;2.75;;;2.05;;
32876;SDS011;19226;51.600;8.034;2023-05-10T05:02:46;1.65;;;1.55;;
32876;SDS011;19226;51.600;8.034;2023-05-10T05:05:31;3.05;;;2.00;;
32876;SDS011;19226;51.600;8.034;2023-05-10T05:08:15;2.08;;;1.65;;
32876;SDS011;19226;51.600;8.034;2023-05-10T05:11:00;5.80;;;1.88;;
32876;SDS011;19226;51.600;8.034;2023-05-10T05:13:44;6.20;;;2.70;;
32876;SDS011;19226;51.600;8.034;2023-05-10T05:16:30;5.50;;;2.67;;
32876;SDS011;19226;51.600;8.034;2023-05-10T05:19:15;4.75;;;3.05;;
32876;SDS011;19226;51.600;8.034;2023-05-10T05:22:00;3.10;;;2.67;;
32876;SDS011;19226;51.600;8.034;2023-05-10T05:24:44;9.90;;;4.03;;
32876;SDS011;19226;51.600;8.034;2023-05-10T05:27:29;5.93;;;3.80;;
32876;SDS011;19226;51.600;8.034;2023-05-10T05:30:13;7.22;;;3.80;;
32876;SDS011;19226;51.600;8.034;2023-05-10T05:32:58;12.05;;;4.05;;
32876;SDS011;19226;51.600;8.034;2023-05-10T05:35:42;6.15;;;4.45;;
32876;SDS011;19226;51.600;8.034;2023-05-10T05:38:31;6.28;;;4.10;;
32876;SDS011;19226;51.600;8.034;2023-05-10T05:41:15;9.05;;;3.80;;
32876;SDS011;19226;51.600;8.034;2023-05-10T05:44:00;6.20;;;4.13;;
32876;SDS011;19226;51.600;8.034;2023-05-10T05:46:45;9.43;;;4.82;;
32876;SDS011;19226;51.600;8.034;2023-05-10T05:49:29;7.57;;;5.53;;
32876;SDS011;19226;51.600;8.034;2023-05-10T05:52:14;5.85;;;4.63;;
32876;SDS011;19226;51.600;8.034;2023-05-10T05:54:59;6.85;;;4.75;;
32876;SDS011;19226;51.600;8.034;2023-05-10T05:57:44;12.90;;;6.88;;
32876;SDS011;19226;51.600;8.034;2023-05-10T06:00:29;10.05;;;6.53;;
32876;SDS011;19226;51.600;8.034;2023-05-10T06:03:13;10.02;;;5.75;;
32876;SDS011;19226;51.600;8.034;2023-05-10T06:05:58;11.50;;;6.82;;
32876;SDS011;19226;51.600;8.034;2023-05-10T06:08:42;15.77;;;7.90;;
32876;SDS011;19226;51.600;8.034;2023-05-10T06:11:27;16.50;;;8.70;;
32876;SDS011;19226;51.600;8.034;2023-05-10T06:14:11;10.25;;;6.65;;
32876;SDS011;19226;51.600;8.034;2023-05-10T06:16:56;15.80;;;7.40;;
32876;SDS011;19226;51.600;8.034;2023-05-10T06:19:40;16.65;;;9.35;;
32876;SDS011;19226;51.600;8.034;2023-05-10T06:22:25;21.42;;;11.82;;
32876;SDS011;19226;51.600;8.034;2023-05-10T06:25:09;18.92;;;11.55;;
32876;SDS011;19226;51.600;8.034;2023-05-10T06:27:54;26.55;;;13.35;;
32876;SDS011;19226;51.600;8.034;2023-05-10T06:30:41;22.73;;;12.93;;
32876;SDS011;19226;51.600;8.034;2023-05-10T06:33:25;29.73;;;12.80;;
32876;SDS011;19226;51.600;8.034;2023-05-10T06:36:10;27.13;;;13.15;;
32876;SDS011;19226;51.600;8.034;2023-05-10T06:38:54;24.63;;;13.80;;
32876;SDS011;19226;51.600;8.034;2023-05-10T06:41:39;25.40;;;14.00;;
32876;SDS011;19226;51.600;8.034;2023-05-10T06:44:24;25.80;;;13.27;;
32876;SDS011;19226;51.600;8.034;2023-05-10T06:47:08;26.08;;;13.75;;
32876;SDS011;19226;51.600;8.034;2023-05-10T06:49:53;23.58;;;14.13;;
32876;SDS011;19226;51.600;8.034;2023-05-10T06:52:37;24.52;;;13.77;;
32876;SDS011;19226;51.600;8.034;2023-05-10T06:55:22;30.33;;;14.43;;
32876;SDS011;19226;51.600;8.034;2023-05-10T06:58:06;31.17;;;15.38;;
32876;SDS011;19226;51.600;8.034;2023-05-10T07:00:51;33.95;;;16.42;;
32876;SDS011;19226;51.600;8.034;2023-05-10T07:03:35;35.10;;;17.00;;
32876;SDS011;19226;51.600;8.034;2023-05-10T07:06:20;36.45;;;18.67;;
32876;SDS011;19226;51.600;8.034;2023-05-10T07:09:05;37.97;;;20.27;;
32876;SDS011;19226;51.600;8.034;2023-05-10T07:11:49;41.80;;;22.60;;
32876;SDS011;19226;51.600;8.034;2023-05-10T07:14:34;57.47;;;25.80;;
32876;SDS011;19226;51.600;8.034;2023-05-10T07:17:18;43.38;;;23.52;;
32876;SDS011;19226;51.600;8.034;2023-05-10T07:20:03;40.35;;;21.25;;
32876;SDS011;19226;51.600;8.034;2023-05-10T07:22:48;37.85;;;20.90;;
32876;SDS011;19226;51.600;8.034;2023-05-10T07:25:32;40.22;;;20.75;;
32876;SDS011;19226;51.600;8.034;2023-05-10T07:28:16;36.53;;;20.33;;
32876;SDS011;19226;51.600;8.034;2023-05-10T07:31:01;40.17;;;21.13;;
32876;SDS011;19226;51.600;8.034;2023-05-10T07:33:46;45.15;;;21.92;;
32876;SDS011;19226;51.600;8.034;2023-05-10T07:36:30;43.40;;;21.20;;
32876;SDS011;19226;51.600;8.034;2023-05-10T07:39:16;47.33;;;22.45;;
32876;SDS011;19226;51.600;8.034;2023-05-10T07:42:01;43.08;;;21.08;;
32876;SDS011;19226;51.600;8.034;2023-05-10T07:44:46;41.20;;;21.35;;
32876;SDS011;19226;51.600;8.034;2023-05-10T07:47:31;36.45;;;22.25;;
32876;SDS011;19226;51.600;8.034;2023-05-10T07:50:15;48.78;;;23.20;;
32876;SDS011;19226;51.600;8.034;2023-05-10T07:53:00;42.10;;;22.75;;
32876;SDS011;19226;51.600;8.034;2023-05-10T07:55:44;47.88;;;23.75;;
32876;SDS011;19226;51.600;8.034;2023-05-10T07:58:34;41.38;;;23.15;;
32876;SDS011;19226;51.600;8.034;2023-05-10T08:01:19;39.40;;;22.48;;
32876;SDS011;19226;51.600;8.034;2023-05-10T08:04:03;44.55;;;23.17;;
32876;SDS011;19226;51.600;8.034;2023-05-10T08:06:48;39.67;;;21.95;;
32876;SDS011;19226;51.600;8.034;2023-05-10T08:09:32;40.92;;;23.67;;
32876;SDS011;19226;51.600;8.034;2023-05-10T08:12:16;45.15;;;24.67;;
32876;SDS011;19226;51.600;8.034;2023-05-10T08:15:01;43.05;;;24.48;;
32876;SDS011;19226;51.600;8.034;2023-05-10T08:17:46;47.63;;;25.80;;
32876;SDS011;19226;51.600;8.034;2023-05-10T08:20:30;43.63;;;26.63;;
32876;SDS011;19226;51.600;8.034;2023-05-10T08:23:15;41.05;;;25.42;;
32876;SDS011;19226;51.600;8.034;2023-05-10T08:25:59;51.38;;;29.15;;
32876;SDS011;19226;51.600;8.034;2023-05-10T08:28:44;39.13;;;24.55;;
32876;SDS011;19226;51.600;8.034;2023-05-10T08:31:28;41.30;;;25.83;;
32876;SDS011;19226;51.600;8.034;2023-05-10T08:34:13;50.42;;;27.35;;
32876;SDS011;19226;51.600;8.034;2023-05-10T08:36:57;39.70;;;25.35;;
32876;SDS011;19226;51.600;8.034;2023-05-10T08:39:42;48.13;;;25.23;;
32876;SDS011;19226;51.600;8.034;2023-05-10T08:42:27;43.40;;;25.45;;
32876;SDS011;19226;51.600;8.034;2023-05-10T08:45:13;36.13;;;23.42;;
32876;SDS011;19226;51.600;8.034;2023-05-10T08:48:01;36.95;;;23.30;;
32876;SDS011;19226;51.600;8.034;2023-05-10T08:50:46;32.45;;;21.40;;
32876;SDS011;19226;51.600;8.034;2023-05-10T08:53:32;36.65;;;23.85;;
32876;SDS011;19226;51.600;8.034;2023-05-10T08:56:18;39.28;;;23.77;;
32876;SDS011;19226;51.600;8.034;2023-05-10T08:59:03;41.03;;;26.58;;
32876;SDS011;19226;51.600;8.034;2023-05-10T09:01:48;44.83;;;26.50;;
32876;SDS011;19226;51.600;8.034;2023-05-10T09:04:34;37.42;;;23.08;;
32876;SDS011;19226;51.600;8.034;2023-05-10T09:07:19;37.22;;;22.63;;
32876;SDS011;19226;51.600;8.034;2023-05-10T09:10:04;33.95;;;21.38;;
32876;SDS011;19226;51.600;8.034;2023-05-10T09:12:49;33.58;;;20.33;;
32876;SDS011;19226;51.600;8.034;2023-05-10T09:15:34;32.80;;;19.80;;
32876;SDS011;19226;51.600;8.034;2023-05-10T09:18:18;32.42;;;19.75;;
32876;SDS011;19226;51.600;8.034;2023-05-10T09:21:03;30.23;;;19.88;;
32876;SDS011;19226;51.600;8.034;2023-05-10T09:23:47;26.35;;;17.35;;
32876;SDS011;19226;51.600;8.034;2023-05-10T09:26:33;25.02;;;17.23;;
32876;SDS011;19226;51.600;8.034;2023-05-10T09:29:19;22.38;;;16.08;;
32876;SDS011;19226;51.600;8.034;2023-05-10T09:32:04;23.92;;;15.27;;
32876;SDS011;19226;51.600;8.034;2023-05-10T09:34:49;24.38;;;15.93;;
32876;SDS011;19226;51.600;8.034;2023-05-10T09:37:33;21.77;;;15.55;;
32876;SDS011;19226;51.600;8.034;2023-05-10T09:40:18;25.88;;;16.52;;
32876;SDS011;19226;51.600;8.034;2023-05-10T09:43:07;24.95;;;15.77;;
32876;SDS011;19226;51.600;8.034;2023-05-10T09:45:52;21.45;;;15.25;;
32876;SDS011;19226;51.600;8.034;2023-05-10T09:48:41;22.73;;;14.70;;
32876;SDS011;19226;51.600;8.034;2023-05-10T09:51:27;20.17;;;13.35;;
32876;SDS011;19226;51.600;8.034;2023-05-10T09:54:16;17.52;;;13.20;;
32876;SDS011;19226;51.600;8.034;2023-05-10T09:57:00;17.88;;;11.55;;
32876;SDS011;19226;51.600;8.034;2023-05-10T09:59:45;12.77;;;9.57;;
32876;SDS011;19226;51.600;8.034;2023-05-10T10:02:31;15.52;;;8.70;;
32876;SDS011;19226;51.600;8.034;2023-05-10T10:05:15;14.40;;;7.57;;
32876;SDS011;19226;51.600;8.034;2023-05-10T10:08:01;11.90;;;7.60;;
32876;SDS011;19226;51.600;8.034;2023-05-10T10:10:47;14.25;;;9.05;;
32876;SDS011;19226;51.600;8.034;2023-05-10T10:13:32;16.52;;;10.57;;
32876;SDS011;19226;51.600;8.034;2023-05-10T10:16:16;16.17;;;9.82;;
32876;SDS011;19226;51.600;8.034;2023-05-10T10:19:01;21.45;;;9.93;;
32876;SDS011;19226;51.600;8.034;2023-05-10T10:21:49;18.35;;;11.82;;
32876;SDS011;19226;51.600;8.034;2023-05-10T10:24:34;15.00;;;11.13;;
32876;SDS011;19226;51.600;8.034;2023-05-10T10:27:23;17.00;;;10.70;;
32876;SDS011;19226;51.600;8.034;2023-05-10T10:33:30;18.25;;;12.13;;
32876;SDS011;19226;51.600;8.034;2023-05-10T10:36:46;19.73;;;13.82;;
32876;SDS011;19226;51.600;8.034;2023-05-10T10:39:31;25.00;;;14.45;;
32876;SDS011;19226;51.600;8.034;2023-05-10T10:42:43;24.77;;;15.15;;
32876;SDS011;19226;51.600;8.034;2023-05-10T10:45:30;25.45;;;14.73;;
32876;SDS011;19226;51.600;8.034;2023-05-10T10:48:22;20.60;;;13.68;;
32876;SDS011;19226;51.600;8.034;2023-05-10T10:51:07;14.05;;;8.13;;
32876;SDS011;19226;51.600;8.034;2023-05-10T10:53:52;14.30;;;8.82;;
32876;SDS011;19226;51.600;8.034;2023-05-10T10:56:38;14.43;;;9.38;;
32876;SDS011;19226;51.600;8.034;2023-05-10T10:59:28;14.50;;;9.43;;
32876;SDS011;19226;51.600;8.034;2023-05-10T11:05:46;16.05;;;11.02;;
32876;SDS011;19226;51.600;8.034;2023-05-10T11:08:32;15.77;;;10.95;;
32876;SDS011;19226;51.600;8.034;2023-05-10T11:11:17;16.58;;;11.65;;
32876;SDS011;19226;51.600;8.034;2023-05-10T11:14:03;19.08;;;12.27;;
32876;SDS011;19226;51.600;8.034;2023-05-10T11:16:49;17.33;;;12.73;;
32876;SDS011;19226;51.600;8.034;2023-05-10T11:19:34;17.52;;;11.88;;
32876;SDS011;19226;51.600;8.034;2023-05-10T11:22:18;16.60;;;11.77;;
32876;SDS011;19226;51.600;8.034;2023-05-10T11:25:03;19.60;;;12.82;;
32876;SDS011;19226;51.600;8.034;2023-05-10T11:27:49;21.50;;;12.52;;
32876;SDS011;19226;51.600;8.034;2023-05-10T11:30:34;15.73;;;11.05;;
32876;SDS011;19226;51.600;8.034;2023-05-10T11:33:19;14.10;;;10.07;;
32876;SDS011;19226;51.600;8.034;2023-05-10T11:36:04;12.00;;;9.25;;
32876;SDS011;19226;51.600;8.034;2023-05-10T11:38:48;15.00;;;9.65;;
32876;SDS011;19226;51.600;8.034;2023-05-10T11:41:33;15.25;;;9.98;;
32876;SDS011;19226;51.600;8.034;2023-05-10T11:44:17;12.07;;;8.85;;
32876;SDS011;19226;51.600;8.034;2023-05-10T11:47:02;14.45;;;9.45;;
32876;SDS011;19226;51.600;8.034;2023-05-10T11:49:47;14.85;;;8.43;;
32876;SDS011;19226;51.600;8.034;2023-05-10T11:52:35;14.30;;;8.02;;
32876;SDS011;19226;51.600;8.034;2023-05-10T11:55:21;11.15;;;9.15;;
32876;SDS011;19226;51.600;8.034;2023-05-10T11:58:07;14.38;;;9.48;;
32876;SDS011;19226;51.600;8.034;2023-05-10T12:00:52;13.48;;;9.52;;
32876;SDS011;19226;51.600;8.034;2023-05-10T12:03:36;14.82;;;8.98;;
32876;SDS011;19226;51.600;8.034;2023-05-10T12:06:22;12.75;;;9.82;;
32876;SDS011;19226;51.600;8.034;2023-05-10T12:09:06;11.65;;;8.82;;
32876;SDS011;19226;51.600;8.034;2023-05-10T12:11:54;12.80;;;9.15;;
32876;SDS011;19226;51.600;8.034;2023-05-10T12:14:40;11.98;;;8.55;;
32876;SDS011;19226;51.600;8.034;2023-05-10T12:17:27;8.73;;;6.25;;
32876;SDS011;19226;51.600;8.034;2023-05-10T12:20:22;12.88;;;6.05;;
32876;SDS011;19226;51.600;8.034;2023-05-10T12:23:08;9.45;;;6.28;;
32876;SDS011;19226;51.600;8.034;2023-05-10T12:25:53;24.48;;;12.15;;
32876;SDS011;19226;51.600;8.034;2023-05-10T12:28:47;19.52;;;11.85;;
32876;SDS011;19226;51.600;8.034;2023-05-10T12:31:32;16.83;;;10.60;;
32876;SDS011;19226;51.600;8.034;2023-05-10T12:34:23;17.70;;;10.20;;
32876;SDS011;19226;51.600;8.034;2023-05-10T12:37:14;19.30;;;11.02;;
32876;SDS011;19226;51.600;8.034;2023-05-10T12:39:58;15.00;;;10.60;;
32876;SDS011;19226;51.600;8.034;2023-05-10T12:42:43;17.98;;;9.85;;
32876;SDS011;19226;51.600;8.034;2023-05-10T12:45:30;17.85;;;11.57;;
32876;SDS011;19226;51.600;8.034;2023-05-10T12:48:16;17.27;;;9.88;;
32876;SDS011;19226;51.600;8.034;2023-05-10T12:51:01;18.58;;;10.48;;
32876;SDS011;19226;51.600;8.034;2023-05-10T12:53:46;14.73;;;9.70;;
32876;SDS011;19226;51.600;8.034;2023-05-10T12:56:31;13.52;;;9.32;;
32876;SDS011;19226;51.600;8.034;2023-05-10T12:59:16;14.05;;;9.07;;
32876;SDS011;19226;51.600;8.034;2023-05-10T13:02:00;14.02;;;9.60;;
32876;SDS011;19226;51.600;8.034;2023-05-10T13:04:45;12.65;;;8.40;;
32876;SDS011;19226;51.600;8.034;2023-05-10T13:07:30;12.30;;;8.43;;
32876;SDS011;19226;51.600;8.034;2023-05-10T13:10:15;15.52;;;8.40;;
32876;SDS011;19226;51.600;8.034;2023-05-10T13:13:00;10.65;;;8.43;;
32876;SDS011;19226;51.600;8.034;2023-05-10T13:15:44;14.02;;;9.35;;
32876;SDS011;19226;51.600;8.034;2023-05-10T13:18:29;17.15;;;10.07;;
32876;SDS011;19226;51.600;8.034;2023-05-10T13:21:14;16.75;;;11.18;;
32876;SDS011;19226;51.600;8.034;2023-05-10T13:23:58;17.50;;;11.68;;
32876;SDS011;19226;51.600;8.034;2023-05-10T13:26:43;14.60;;;11.13;;
32876;SDS011;19226;51.600;8.034;2023-05-10T13:29:28;15.63;;;11.27;;
32876;SDS011;19226;51.600;8.034;2023-05-10T13:32:13;15.77;;;11.02;;
32876;SDS011;19226;51.600;8.034;2023-05-10T13:34:58;16.23;;;10.02;;
32876;SDS011;19226;51.600;8.034;2023-05-10T13:37:42;15.38;;;9.65;;
32876;SDS011;19226;51.600;8.034;2023-05-10T13:40:27;14.05;;;9.32;;
32876;SDS011;19226;51.600;8.034;2023-05-10T13:43:12;12.88;;;8.15;;
32876;SDS011;19226;51.600;8.034;2023-05-10T13:45:56;14.20;;;8.77;;
32876;SDS011;19226;51.600;8.034;2023-05-10T13:48:41;12.60;;;7.88;;
32876;SDS011;19226;51.600;8.034;2023-05-10T13:51:25;10.93;;;7.30;;
32876;SDS011;19226;51.600;8.034;2023-05-10T13:54:10;11.07;;;7.13;;
32876;SDS011;19226;51.600;8.034;2023-05-10T13:56:54;12.63;;;7.22;;
32876;SDS011;19226;51.600;8.034;2023-05-10T13:59:39;10.68;;;8.00;;
32876;SDS011;19226;51.600;8.034;2023-05-10T14:02:24;12.13;;;7.90;;
32876;SDS011;19226;51.600;8.034;2023-05-10T14:05:09;12.13;;;7.57;;
32876;SDS011;19226;51.600;8.034;2023-05-10T14:07:54;14.18;;;7.90;;
32876;SDS011;19226;51.600;8.034;2023-05-10T14:10:39;13.55;;;7.93;;
32876;SDS011;19226;51.600;8.034;2023-05-10T14:13:23;9.10;;;6.85;;
32876;SDS011;19226;51.600;8.034;2023-05-10T14:16:08;11.93;;;7.25;;
32876;SDS011;19226;51.600;8.034;2023-05-10T14:18:52;10.10;;;6.50;;
32876;SDS011;19226;51.600;8.034;2023-05-10T14:21:37;7.65;;;5.93;;
32876;SDS011;19226;51.600;8.034;2023-05-10T14:24:22;8.07;;;5.88;;
32876;SDS011;19226;51.600;8.034;2023-05-10T14:27:06;11.40;;;6.05;;
32876;SDS011;19226;51.600;8.034;2023-05-10T14:29:51;11.27;;;5.90;;
32876;SDS011;19226;51.600;8.034;2023-05-10T14:32:37;8.43;;;6.82;;
32876;SDS011;19226;51.600;8.034;2023-05-10T14:35:21;11.50;;;7.80;;
32876;SDS011;19226;51.600;8.034;2023-05-10T14:38:06;12.13;;;7.70;;
32876;SDS011;19226;51.600;8.034;2023-05-10T14:40:50;8.18;;;7.38;;
32876;SDS011;19226;51.600;8.034;2023-05-10T14:43:35;10.88;;;8.50;;
32876;SDS011;19226;51.600;8.034;2023-05-10T14:46:20;12.63;;;8.73;;
32876;SDS011;19226;51.600;8.034;2023-05-10T14:49:05;9.80;;;8.50;;
32876;SDS011;19226;51.600;8.034;2023-05-10T14:51:50;12.25;;;8.48;;
32876;SDS011;19226;51.600;8.034;2023-05-10T14:54:34;9.93;;;8.07;;
32876;SDS011;19226;51.600;8.034;2023-05-10T14:57:19;9.60;;;7.90;;
32876;SDS011;19226;51.600;8.034;2023-05-10T15:00:04;8.90;;;7.40;;
32876;SDS011;19226;51.600;8.034;2023-05-10T15:02:49;10.45;;;7.40;;
32876;SDS011;19226;51.600;8.034;2023-05-10T15:05:34;12.32;;;8.38;;
32876;SDS011;19226;51.600;8.034;2023-05-10T15:08:18;9.20;;;7.38;;
32876;SDS011;19226;51.600;8.034;2023-05-10T15:11:03;8.90;;;6.57;;
32876;SDS011;19226;51.600;8.034;2023-05-10T15:13:47;9.02;;;7.10;;
32876;SDS011;19226;51.600;8.034;2023-05-10T15:16:32;9.63;;;7.65;;
32876;SDS011;19226;51.600;8.034;2023-05-10T15:19:16;8.00;;;7.18;;
32876;SDS011;19226;51.600;8.034;2023-05-10T15:22:01;8.65;;;7.05;;
32876;SDS011;19226;51.600;8.034;2023-05-10T15:24:46;8.13;;;7.18;;
32876;SDS011;19226;51.600;8.034;2023-05-10T15:27:30;8.35;;;6.25;;
32876;SDS011;19226;51.600;8.034;2023-05-10T15:30:15;10.80;;;6.85;;
32876;SDS011;19226;51.600;8.034;2023-05-10T15:33:00;8.85;;;6.78;;
32876;SDS011;19226;51.600;8.034;2023-05-10T15:35:46;10.13;;;6.90;;
32876;SDS011;19226;51.600;8.034;2023-05-10T15:38:30;11.80;;;6.70;;
32876;SDS011;19226;51.600;8.034;2023-05-10T15:41:15;11.80;;;7.53;;
32876;SDS011;19226;51.600;8.034;2023-05-10T15:44:00;7.40;;;6.68;;
32876;SDS011;19226;51.600;8.034;2023-05-10T15:46:44;10.00;;;7.28;;
32876;SDS011;19226;51.600;8.034;2023-05-10T15:49:29;15.98;;;8.57;;
32876;SDS011;19226;51.600;8.034;2023-05-10T15:52:13;10.73;;;7.45;;
32876;SDS011;19226;51.600;8.034;2023-05-10T15:54:58;10.10;;;7.40;;
32876;SDS011;19226;51.600;8.034;2023-05-10T15:57:43;8.07;;;6.25;;
32876;SDS011;19226;51.600;8.034;2023-05-10T16:00:27;6.95;;;5.70;;
32876;SDS011;19226;51.600;8.034;2023-05-10T16:03:12;8.18;;;7.10;;
32876;SDS011;19226;51.600;8.034;2023-05-10T16:05:56;8.82;;;6.95;;
32876;SDS011;19226;51.600;8.034;2023-05-10T16:08:41;12.27;;;7.82;;
32876;SDS011;19226;51.600;8.034;2023-05-10T16:11:27;14.45;;;8.70;;
32876;SDS011;19226;51.600;8.034;2023-05-10T16:14:11;9.15;;;7.25;;
32876;SDS011;19226;51.600;8.034;2023-05-10T16:16:56;10.05;;;7.53;;
32876;SDS011;19226;51.600;8.034;2023-05-10T16:19:41;9.95;;;7.00;;
32876;SDS011;19226;51.600;8.034;2023-05-10T16:22:25;8.60;;;6.70;;
32876;SDS011;19226;51.600;8.034;2023-05-10T16:25:11;8.88;;;6.38;;
32876;SDS011;19226;51.600;8.034;2023-05-10T16:27:56;8.38;;;6.20;;
32876;SDS011;19226;51.600;8.034;2023-05-10T16:30:41;11.07;;;7.03;;
32876;SDS011;19226;51.600;8.034;2023-05-10T16:33:25;9.10;;;5.88;;
32876;SDS011;19226;51.600;8.034;2023-05-10T16:36:10;11.10;;;6.80;;
32876;SDS011;19226;51.600;8.034;2023-05-10T16:38:54;6.70;;;6.00;;
32876;SDS011;19226;51.600;8.034;2023-05-10T16:41:39;9.18;;;6.32;;
32876;SDS011;19226;51.600;8.034;2023-05-10T16:44:24;6.72;;;6.05;;
32876;SDS011;19226;51.600;8.034;2023-05-10T16:47:08;13.10;;;6.75;;
32876;SDS011;19226;51.600;8.034;2023-05-10T16:49:53;6.88;;;6.20;;
32876;SDS011;19226;51.600;8.034;2023-05-10T16:52:37;13.00;;;6.70;;